sensor_id;sensor_type;location;lat;lon;timestamp;pressure;altitude;pressure_sealevel;temperature;humidity
32789;BME280;19141;48.980;8.410;2022-08-19T04:22:35;99839.00;;;19.60;100.00
32789;BME280;19141;48.980;8.410;2022-08-19T04:25:00;99839.56;;;19.62;100.00
32789;BME280;19141;48.980;8.410;2022-08-19T04:27:26;99834.97;;;19.62;100.00
32789;BME280;19141;48.980;8.410;2022-08-19T04:29:51;99831.81;;;19.65;100.00
32789;BME280;19141;48.980;8.410;2022-08-19T04:32:17;99827.72;;;19.63;100.00
32789;BME280;19141;48.980;8.410;2022-08-19T04:34:43;99827.47;;;19.64;100.00
32789;BME280;19141;48.980;8.410;2022-08-19T04:37:08;99832.88;;;19.64;100.00
32789;BME280;19141;48.980;8.410;2022-08-19T04:39:38;99836.41;;;19.65;100.00
32789;BME280;19141;48.980;8.410;2022-08-19T04:42:23;99836.66;;;19.63;100.00
32789;BME280;19141;48.980;8.410;2022-08-19T04:45:09;99844.25;;;19.66;100.00
32789;BME280;19141;48.980;8.410;2022-08-19T04:47:40;99842.06;;;19.63;100.00
32789;BME280;19141;48.980;8.410;2022-08-19T04:50:07;99846.94;;;19.66;100.00
32789;BME280;19141;48.980;8.410;2022-08-19T04:52:33;99844.81;;;19.68;100.00
32789;BME280;19141;48.980;8.410;2022-08-19T04:54:59;99840.22;;;19.69;100.00
32789;BME280;19141;48.980;8.410;2022-08-19T04:57:24;99850.56;;;19.72;100.00
32789;BME280;19141;48.980;8.410;2022-08-19T04:59:54;99851.97;;;19.74;100.00
32789;BME280;19141;48.980;8.410;2022-08-19T05:02:20;99850.88;;;19.75;100.00
32789;BME280;19141;48.980;8.410;2022-08-19T05:04:45;99859.09;;;19.81;100.00
32789;BME280;19141;48.980;8.410;2022-08-19T05:07:11;99861.31;;;19.84;100.00
32789;BME280;19141;48.980;8.410;2022-08-19T05:09:37;99845.69;;;19.86;100.00
32789;BME280;19141;48.980;8.410;2022-08-19T05:12:03;99851.66;;;19.88;100.00
32789;BME280;19141;48.980;8.410;2022-08-19T05:14:28;99851.44;;;19.89;100.00
32789;BME280;19141;48.980;8.410;2022-08-19T05:16:54;99860.41;;;19.95;100.00
32789;BME280;19141;48.980;8.410;2022-08-19T05:19:19;99856.09;;;19.94;100.00
32789;BME280;19141;48.980;8.410;2022-08-19T05:22:03;99871.00;;;19.96;100.00
32789;BME280;19141;48.980;8.410;2022-08-19T05:24:47;99870.75;;;19.98;100.00
32789;BME280;19141;48.980;8.410;2022-08-19T05:27:12;99876.16;;;19.98;100.00
32789;BME280;19141;48.980;8.410;2022-08-19T05:29:38;99874.03;;;20.00;100.00
32789;BME280;19141;48.980;8.410;2022-08-19T05:32:05;99878.16;;;20.02;100.00
32789;BME280;19141;48.980;8.410;2022-08-19T05:34:33;99884.13;;;20.04;100.00
32789;BME280;19141;48.980;8.410;2022-08-19T05:37:02;99892.47;;;20.03;100.00
32789;BME280;19141;48.980;8.410;2022-08-19T05:39:29;99896.91;;;20.09;100.00
32789;BME280;19141;48.980;8.410;2022-08-19T05:41:58;99905.09;;;20.14;100.00
32789;BME280;19141;48.980;8.410;2022-08-19T05:44:26;99904.63;;;20.17;100.00
32789;BME280;19141;48.980;8.410;2022-08-19T05:46:52;99911.41;;;20.20;100.00
32789;BME280;19141;48.980;8.410;2022-08-19T05:49:20;99916.66;;;20.26;100.00
32789;BME280;19141;48.980;8.410;2022-08-19T05:51:46;99920.19;;;20.27;100.00
32789;BME280;19141;48.980;8.410;2022-08-19T05:54:12;99926.19;;;20.29;100.00
32789;BME280;19141;48.980;8.410;2022-08-19T05:56:39;99931.44;;;20.36;100.00
32789;BME280;19141;48.980;8.410;2022-08-19T05:59:06;99930.03;;;20.33;100.00
32789;BME280;19141;48.980;8.410;2022-08-19T06:01:40;99922.00;;;20.38;100.00
32789;BME280;19141;48.980;8.410;2022-08-19T06:04:06;99921.75;;;20.40;100.00
32789;BME280;19141;48.980;8.410;2022-08-19T06:06:33;99922.56;;;20.40;100.00
32789;BME280;19141;48.980;8.410;2022-08-19T06:09:01;99919.72;;;20.47;99.18
32789;BME280;19141;48.980;8.410;2022-08-19T06:14:02;99930.34;;;20.48;98.13
32789;BME280;19141;48.980;8.410;2022-08-19T06:16:28;99927.03;;;20.46;97.74
32789;BME280;19141;48.980;8.410;2022-08-19T06:19:02;99928.31;;;20.44;97.14
32789;BME280;19141;48.980;8.410;2022-08-19T06:21:28;99928.31;;;20.44;96.65
32789;BME280;19141;48.980;8.410;2022-08-19T06:23:55;99930.34;;;20.48;96.31
32789;BME280;19141;48.980;8.410;2022-08-19T06:26:22;99920.31;;;20.49;96.63
32789;BME280;19141;48.980;8.410;2022-08-19T06:28:48;99929.00;;;20.51;96.38
32789;BME280;19141;48.980;8.410;2022-08-19T06:31:19;99928.53;;;20.54;97.11
32789;BME280;19141;48.980;8.410;2022-08-19T06:33:46;99939.66;;;20.57;97.21
32789;BME280;19141;48.980;8.410;2022-08-19T06:36:20;99943.75;;;20.60;96.58
32789;BME280;19141;48.980;8.410;2022-08-19T06:38:46;99941.91;;;20.61;97.33
32789;BME280;19141;48.980;8.410;2022-08-19T06:41:11;99943.28;;;20.63;97.46
32789;BME280;19141;48.980;8.410;2022-08-19T06:43:37;99943.75;;;20.60;97.02
32789;BME280;19141;48.980;8.410;2022-08-19T06:46:02;99949.00;;;20.67;97.66
32789;BME280;19141;48.980;8.410;2022-08-19T06:48:29;99945.91;;;20.75;96.67
32789;BME280;19141;48.980;8.410;2022-08-19T06:50:55;99942.69;;;20.78;97.37
32789;BME280;19141;48.980;8.410;2022-08-19T06:53:21;99936.78;;;20.81;95.39
32789;BME280;19141;48.980;8.410;2022-08-19T06:55:47;99939.81;;;20.84;95.76
32789;BME280;19141;48.980;8.410;2022-08-19T06:58:12;99939.38;;;20.93;95.14
32789;BME280;19141;48.980;8.410;2022-08-19T07:00:38;99942.75;;;21.00;94.88
32789;BME280;19141;48.980;8.410;2022-08-19T07:03:03;99948.22;;;21.05;94.59
32789;BME280;19141;48.980;8.410;2022-08-19T07:05:29;99947.47;;;21.09;92.72
32789;BME280;19141;48.980;8.410;2022-08-19T07:07:54;99956.50;;;21.15;91.56
32789;BME280;19141;48.980;8.410;2022-08-19T07:10:20;99956.06;;;21.23;90.68
32789;BME280;19141;48.980;8.410;2022-08-19T07:12:46;99952.38;;;21.29;89.81
32789;BME280;19141;48.980;8.410;2022-08-19T07:15:12;99957.63;;;21.36;88.96
32789;BME280;19141;48.980;8.410;2022-08-19T07:17:38;99962.03;;;21.42;88.44
32789;BME280;19141;48.980;8.410;2022-08-19T07:20:05;99960.72;;;21.45;87.13
32789;BME280;19141;48.980;8.410;2022-08-19T07:22:33;99948.88;;;21.51;85.40
32789;BME280;19141;48.980;8.410;2022-08-19T07:24:59;99949.00;;;21.61;85.16
32789;BME280;19141;48.980;8.410;2022-08-19T07:27:25;99950.16;;;21.65;83.10
32789;BME280;19141;48.980;8.410;2022-08-19T07:29:52;99952.88;;;21.70;82.82
32789;BME280;19141;48.980;8.410;2022-08-19T07:32:18;99953.47;;;21.72;82.10
32789;BME280;19141;48.980;8.410;2022-08-19T07:34:43;99952.13;;;21.75;82.29
32789;BME280;19141;48.980;8.410;2022-08-19T07:37:10;99950.00;;;21.77;81.95
32789;BME280;19141;48.980;8.410;2022-08-19T07:39:37;99945.38;;;21.77;81.72
32789;BME280;19141;48.980;8.410;2022-08-19T07:42:07;99942.25;;;21.85;79.35
32789;BME280;19141;48.980;8.410;2022-08-19T07:44:34;99947.19;;;21.93;79.60
32789;BME280;19141;48.980;8.410;2022-08-19T07:47:00;99951.88;;;21.98;78.37
32789;BME280;19141;48.980;8.410;2022-08-19T07:49:26;99953.84;;;22.08;77.29
32789;BME280;19141;48.980;8.410;2022-08-19T07:51:54;99957.72;;;22.12;77.02
32789;BME280;19141;48.980;8.410;2022-08-19T07:54:22;99949.38;;;22.18;76.64
32789;BME280;19141;48.980;8.410;2022-08-19T07:56:48;99949.69;;;22.22;75.57
32789;BME280;19141;48.980;8.410;2022-08-19T07:59:17;99951.38;;;22.28;75.78
32789;BME280;19141;48.980;8.410;2022-08-19T08:01:44;99959.50;;;22.28;75.45
32789;BME280;19141;48.980;8.410;2022-08-19T08:04:09;99961.41;;;22.28;75.59
32789;BME280;19141;48.980;8.410;2022-08-19T08:06:53;99951.63;;;22.27;74.82
32789;BME280;19141;48.980;8.410;2022-08-19T08:09:41;99958.75;;;22.33;74.27
32789;BME280;19141;48.980;8.410;2022-08-19T08:12:14;99944.16;;;22.39;74.95
32789;BME280;19141;48.980;8.410;2022-08-19T08:14:53;99949.34;;;22.45;73.90
32789;BME280;19141;48.980;8.410;2022-08-19T08:17:20;99947.28;;;22.58;73.97
32789;BME280;19141;48.980;8.410;2022-08-19T08:19:46;99952.22;;;22.66;72.10
32789;BME280;19141;48.980;8.410;2022-08-19T08:22:15;99959.38;;;22.77;71.86
32789;BME280;19141;48.980;8.410;2022-08-19T08:25:10;99950.00;;;22.95;71.46
32789;BME280;19141;48.980;8.410;2022-08-19T08:27:40;99947.13;;;23.12;71.26
32789;BME280;19141;48.980;8.410;2022-08-19T08:30:09;99947.22;;;23.22;69.52
32789;BME280;19141;48.980;8.410;2022-08-19T08:32:36;99954.03;;;23.29;71.29
32789;BME280;19141;48.980;8.410;2022-08-19T08:35:04;99956.00;;;23.44;69.98
32789;BME280;19141;48.980;8.410;2022-08-19T08:37:30;99955.50;;;23.52;68.98
32789;BME280;19141;48.980;8.410;2022-08-19T08:39:55;99954.50;;;23.64;69.44
32789;BME280;19141;48.980;8.410;2022-08-19T08:42:30;99960.75;;;23.69;67.41
32789;BME280;19141;48.980;8.410;2022-08-19T08:45:00;99957.81;;;23.81;67.13
32789;BME280;19141;48.980;8.410;2022-08-19T08:47:30;99961.94;;;23.94;67.84
32789;BME280;19141;48.980;8.410;2022-08-19T08:50:03;99954.06;;;24.02;64.46
32789;BME280;19141;48.980;8.410;2022-08-19T08:52:39;99953.81;;;24.14;64.24
32789;BME280;19141;48.980;8.410;2022-08-19T08:55:14;99959.53;;;24.28;64.42
32789;BME280;19141;48.980;8.410;2022-08-19T09:00:22;99962.03;;;24.50;63.70
32789;BME280;19141;48.980;8.410;2022-08-19T09:02:48;99964.75;;;24.55;61.95
32789;BME280;19141;48.980;8.410;2022-08-19T09:05:14;99948.44;;;24.60;62.35
32789;BME280;19141;48.980;8.410;2022-08-19T09:07:45;99956.31;;;24.67;61.51
32789;BME280;19141;48.980;8.410;2022-08-19T09:10:40;99948.97;;;24.62;61.75
32789;BME280;19141;48.980;8.410;2022-08-19T09:13:21;99953.59;;;24.72;61.94
32789;BME280;19141;48.980;8.410;2022-08-19T09:15:58;99955.75;;;24.90;62.82
32789;BME280;19141;48.980;8.410;2022-08-19T09:18:47;99954.63;;;25.01;61.55
32789;BME280;19141;48.980;8.410;2022-08-19T09:21:15;99953.03;;;25.05;59.21
32789;BME280;19141;48.980;8.410;2022-08-19T09:23:41;99954.91;;;25.10;60.25
32789;BME280;19141;48.980;8.410;2022-08-19T09:26:14;99957.91;;;25.08;59.65
32789;BME280;19141;48.980;8.410;2022-08-19T09:28:41;99947.53;;;25.15;58.59
32789;BME280;19141;48.980;8.410;2022-08-19T09:31:35;99951.88;;;25.22;58.54
32789;BME280;19141;48.980;8.410;2022-08-19T09:34:00;99944.72;;;25.51;57.42
32789;BME280;19141;48.980;8.410;2022-08-19T09:36:28;99953.31;;;25.84;57.29
32789;BME280;19141;48.980;8.410;2022-08-19T09:38:55;99961.44;;;25.94;55.80
32789;BME280;19141;48.980;8.410;2022-08-19T09:41:23;99949.81;;;26.22;56.38
32789;BME280;19141;48.980;8.410;2022-08-19T09:43:51;99956.69;;;26.54;54.57
32789;BME280;19141;48.980;8.410;2022-08-19T09:46:18;99955.84;;;26.54;53.82
32789;BME280;19141;48.980;8.410;2022-08-19T09:48:47;99952.75;;;26.65;53.42
32789;BME280;19141;48.980;8.410;2022-08-19T09:51:17;99951.72;;;26.61;52.67
32789;BME280;19141;48.980;8.410;2022-08-19T09:53:44;99948.16;;;26.90;51.61
32789;BME280;19141;48.980;8.410;2022-08-19T09:56:11;99945.97;;;27.21;52.15
32789;BME280;19141;48.980;8.410;2022-08-19T09:58:37;99944.47;;;27.76;49.80
32789;BME280;19141;48.980;8.410;2022-08-19T10:01:04;99951.75;;;28.05;48.98
32789;BME280;19141;48.980;8.410;2022-08-19T10:03:30;99956.63;;;28.46;48.35
32789;BME280;19141;48.980;8.410;2022-08-19T10:05:58;99955.69;;;28.36;46.94
32789;BME280;19141;48.980;8.410;2022-08-19T10:08:42;99958.38;;;27.56;46.97
32789;BME280;19141;48.980;8.410;2022-08-19T10:11:08;99958.22;;;27.23;47.90
32789;BME280;19141;48.980;8.410;2022-08-19T10:13:34;99962.94;;;27.42;48.13
32789;BME280;19141;48.980;8.410;2022-08-19T10:16:07;99950.94;;;27.62;48.66
32789;BME280;19141;48.980;8.410;2022-08-19T10:18:33;99954.38;;;28.10;47.13
32789;BME280;19141;48.980;8.410;2022-08-19T10:21:09;99946.03;;;28.20;45.88
32789;BME280;19141;48.980;8.410;2022-08-19T10:23:39;99957.38;;;28.32;47.52
32789;BME280;19141;48.980;8.410;2022-08-19T10:26:06;99957.97;;;28.62;46.13
32789;BME280;19141;48.980;8.410;2022-08-19T10:28:34;99951.41;;;28.63;45.37
32789;BME280;19141;48.980;8.410;2022-08-19T10:31:07;99951.13;;;29.11;45.75
32789;BME280;19141;48.980;8.410;2022-08-19T10:33:33;99943.88;;;29.01;45.25
32789;BME280;19141;48.980;8.410;2022-08-19T10:36:04;99955.78;;;28.97;44.65
32789;BME280;19141;48.980;8.410;2022-08-19T10:38:29;99939.13;;;29.07;43.90
32789;BME280;19141;48.980;8.410;2022-08-19T10:40:56;99934.13;;;29.78;44.22
32789;BME280;19141;48.980;8.410;2022-08-19T10:43:22;99932.97;;;29.92;43.04
32789;BME280;19141;48.980;8.410;2022-08-19T10:45:54;99930.81;;;29.67;43.76
32789;BME280;19141;48.980;8.410;2022-08-19T10:48:24;99934.44;;;29.76;42.77
32789;BME280;19141;48.980;8.410;2022-08-19T10:50:50;99927.94;;;29.44;43.60
32789;BME280;19141;48.980;8.410;2022-08-19T10:53:33;99924.81;;;29.65;42.06
32789;BME280;19141;48.980;8.410;2022-08-19T10:55:59;99926.63;;;30.06;41.62
32789;BME280;19141;48.980;8.410;2022-08-19T10:58:43;99915.03;;;30.76;40.23
32789;BME280;19141;48.980;8.410;2022-08-19T11:01:10;99913.47;;;30.61;39.81
32789;BME280;19141;48.980;8.410;2022-08-19T11:03:35;99918.13;;;30.30;40.33
32789;BME280;19141;48.980;8.410;2022-08-19T11:06:06;99910.06;;;30.33;40.80
32789;BME280;19141;48.980;8.410;2022-08-19T11:08:32;99895.25;;;29.34;41.31
32789;BME280;19141;48.980;8.410;2022-08-19T11:11:00;99911.31;;;29.91;40.91
32789;BME280;19141;48.980;8.410;2022-08-19T11:13:27;99901.34;;;29.95;41.44
32789;BME280;19141;48.980;8.410;2022-08-19T11:16:02;99891.31;;;30.80;40.56
32789;BME280;19141;48.980;8.410;2022-08-19T11:18:28;99898.88;;;30.74;39.46
32789;BME280;19141;48.980;8.410;2022-08-19T11:20:53;99898.97;;;30.92;39.38
32789;BME280;19141;48.980;8.410;2022-08-19T11:23:19;99895.44;;;31.00;39.90
32789;BME280;19141;48.980;8.410;2022-08-19T11:25:45;99888.72;;;31.23;38.86
32789;BME280;19141;48.980;8.410;2022-08-19T11:28:11;99882.34;;;31.05;39.03
32789;BME280;19141;48.980;8.410;2022-08-19T11:30:37;99879.72;;;31.49;38.14
32789;BME280;19141;48.980;8.410;2022-08-19T11:33:03;99880.22;;;31.59;39.01
32789;BME280;19141;48.980;8.410;2022-08-19T11:35:28;99879.00;;;31.17;39.22
32789;BME280;19141;48.980;8.410;2022-08-19T11:37:54;99882.13;;;30.93;39.53
32789;BME280;19141;48.980;8.410;2022-08-19T11:40:21;99878.44;;;30.13;41.43
32789;BME280;19141;48.980;8.410;2022-08-19T11:42:46;99873.09;;;29.58;42.80
32789;BME280;19141;48.980;8.410;2022-08-19T11:45:24;99878.16;;;29.65;42.14
32789;BME280;19141;48.980;8.410;2022-08-19T11:47:51;99875.50;;;29.46;43.00
32789;BME280;19141;48.980;8.410;2022-08-19T11:50:16;99883.94;;;30.13;42.09
32789;BME280;19141;48.980;8.410;2022-08-19T11:52:43;99882.56;;;30.56;40.78
32789;BME280;19141;48.980;8.410;2022-08-19T11:55:10;99880.84;;;31.48;38.88
32789;BME280;19141;48.980;8.410;2022-08-19T11:57:36;99873.09;;;31.67;38.21
32789;BME280;19141;48.980;8.410;2022-08-19T12:00:03;99878.13;;;32.26;37.89
32789;BME280;19141;48.980;8.410;2022-08-19T12:02:30;99877.84;;;32.83;36.40
32789;BME280;19141;48.980;8.410;2022-08-19T12:04:55;99873.09;;;33.01;36.29
32789;BME280;19141;48.980;8.410;2022-08-19T12:07:21;99871.84;;;32.89;35.28
32789;BME280;19141;48.980;8.410;2022-08-19T12:09:46;99882.47;;;32.61;36.10
32789;BME280;19141;48.980;8.410;2022-08-19T12:12:12;99878.59;;;33.30;34.68
32789;BME280;19141;48.980;8.410;2022-08-19T12:14:38;99882.03;;;32.98;35.88
32789;BME280;19141;48.980;8.410;2022-08-19T12:17:04;99888.84;;;32.19;36.17
32789;BME280;19141;48.980;8.410;2022-08-19T12:19:32;99900.22;;;31.91;37.46
32789;BME280;19141;48.980;8.410;2022-08-19T12:22:00;99892.47;;;30.88;38.23
32789;BME280;19141;48.980;8.410;2022-08-19T12:24:31;99899.75;;;30.61;39.02
32789;BME280;19141;48.980;8.410;2022-08-19T12:26:57;99890.53;;;29.76;39.60
32789;BME280;19141;48.980;8.410;2022-08-19T12:29:24;99897.59;;;29.55;40.46
32789;BME280;19141;48.980;8.410;2022-08-19T12:31:55;99891.56;;;29.39;41.54
32789;BME280;19141;48.980;8.410;2022-08-19T12:34:27;99895.88;;;29.17;42.24
32789;BME280;19141;48.980;8.410;2022-08-19T12:36:56;99896.63;;;28.77;43.14
32789;BME280;19141;48.980;8.410;2022-08-19T12:39:22;99896.50;;;28.82;43.45
32789;BME280;19141;48.980;8.410;2022-08-19T12:41:47;99905.28;;;28.37;44.32
32789;BME280;19141;48.980;8.410;2022-08-19T12:44:14;99897.13;;;28.13;45.22
32789;BME280;19141;48.980;8.410;2022-08-19T12:46:40;99889.28;;;28.07;44.00
32789;BME280;19141;48.980;8.410;2022-08-19T12:49:05;99890.56;;;27.96;44.85
32789;BME280;19141;48.980;8.410;2022-08-19T12:51:31;99889.69;;;27.81;45.05
32789;BME280;19141;48.980;8.410;2022-08-19T12:53:56;99889.25;;;27.74;44.03
32789;BME280;19141;48.980;8.410;2022-08-19T12:56:22;99886.88;;;27.87;43.23
32789;BME280;19141;48.980;8.410;2022-08-19T12:58:47;99883.16;;;28.48;41.50
32789;BME280;19141;48.980;8.410;2022-08-19T13:01:15;99887.53;;;29.36;41.56
32789;BME280;19141;48.980;8.410;2022-08-19T13:03:41;99882.28;;;30.12;39.07
32789;BME280;19141;48.980;8.410;2022-08-19T13:06:08;99879.72;;;31.00;37.55
32789;BME280;19141;48.980;8.410;2022-08-19T13:08:34;99868.09;;;31.69;35.83
32789;BME280;19141;48.980;8.410;2022-08-19T13:11:29;99869.91;;;32.08;35.29
32789;BME280;19141;48.980;8.410;2022-08-19T13:13:58;99874.41;;;32.39;33.99
32789;BME280;19141;48.980;8.410;2022-08-19T13:16:24;99873.22;;;32.57;33.46
32789;BME280;19141;48.980;8.410;2022-08-19T13:18:50;99860.81;;;32.89;33.58
32789;BME280;19141;48.980;8.410;2022-08-19T13:21:20;99852.97;;;33.30;32.91
32789;BME280;19141;48.980;8.410;2022-08-19T13:23:46;99865.66;;;33.52;31.61
32789;BME280;19141;48.980;8.410;2022-08-19T13:26:12;99856.19;;;33.61;32.33
32789;BME280;19141;48.980;8.410;2022-08-19T13:28:39;99861.59;;;33.79;31.32
32789;BME280;19141;48.980;8.410;2022-08-19T13:31:25;99858.13;;;34.23;30.35
32789;BME280;19141;48.980;8.410;2022-08-19T13:34:10;99868.00;;;34.58;28.85
32789;BME280;19141;48.980;8.410;2022-08-19T13:36:36;99852.59;;;34.36;28.39
32789;BME280;19141;48.980;8.410;2022-08-19T13:39:03;99857.09;;;34.40;29.42
32789;BME280;19141;48.980;8.410;2022-08-19T13:41:29;99857.03;;;34.16;28.07
32789;BME280;19141;48.980;8.410;2022-08-19T13:43:54;99842.44;;;33.94;28.83
32789;BME280;19141;48.980;8.410;2022-08-19T13:46:20;99843.34;;;33.65;28.93
32789;BME280;19141;48.980;8.410;2022-08-19T13:48:46;99842.78;;;33.21;28.92
32789;BME280;19141;48.980;8.410;2022-08-19T13:51:14;99841.75;;;33.05;29.33
32789;BME280;19141;48.980;8.410;2022-08-19T13:53:42;99835.41;;;32.66;28.96
32789;BME280;19141;48.980;8.410;2022-08-19T13:56:10;99836.81;;;32.43;29.08
32789;BME280;19141;48.980;8.410;2022-08-19T13:58:37;99841.88;;;32.15;29.95
32789;BME280;19141;48.980;8.410;2022-08-19T14:01:03;99838.94;;;31.68;29.15
32789;BME280;19141;48.980;8.410;2022-08-19T14:03:28;99842.47;;;31.43;29.52
32789;BME280;19141;48.980;8.410;2022-08-19T14:05:54;99837.16;;;31.46;30.31
32789;BME280;19141;48.980;8.410;2022-08-19T14:08:19;99836.66;;;31.36;31.06
32789;BME280;19141;48.980;8.410;2022-08-19T14:10:45;99826.63;;;31.31;30.72
32789;BME280;19141;48.980;8.410;2022-08-19T14:13:14;99839.72;;;31.34;31.18
32789;BME280;19141;48.980;8.410;2022-08-19T14:15:41;99841.50;;;31.30;31.85
32789;BME280;19141;48.980;8.410;2022-08-19T14:18:06;99835.59;;;31.05;31.11
32789;BME280;19141;48.980;8.410;2022-08-19T14:20:35;99832.88;;;31.23;32.09
32789;BME280;19141;48.980;8.410;2022-08-19T14:23:01;99839.81;;;31.12;32.54
32789;BME280;19141;48.980;8.410;2022-08-19T14:25:28;99845.44;;;30.98;32.60
32789;BME280;19141;48.980;8.410;2022-08-19T14:27:55;99839.94;;;30.67;33.08
32789;BME280;19141;48.980;8.410;2022-08-19T14:30:24;99833.84;;;30.70;33.06
32789;BME280;19141;48.980;8.410;2022-08-19T14:32:52;99845.31;;;30.41;33.42
32789;BME280;19141;48.980;8.410;2022-08-19T14:35:18;99837.03;;;30.32;33.44
32789;BME280;19141;48.980;8.410;2022-08-19T14:37:44;99848.44;;;30.25;33.00
32789;BME280;19141;48.980;8.410;2022-08-19T14:40:11;99838.66;;;30.11;33.60
32789;BME280;19141;48.980;8.410;2022-08-19T14:42:37;99836.13;;;30.14;34.97
32789;BME280;19141;48.980;8.410;2022-08-19T14:45:03;99827.44;;;30.21;34.55
32789;BME280;19141;48.980;8.410;2022-08-19T14:47:30;99830.34;;;30.24;35.22
32789;BME280;19141;48.980;8.410;2022-08-19T14:49:56;99831.00;;;30.21;33.69
32789;BME280;19141;48.980;8.410;2022-08-19T14:52:21;99819.31;;;30.16;34.32
32789;BME280;19141;48.980;8.410;2022-08-19T14:54:47;99816.69;;;30.11;34.73
32789;BME280;19141;48.980;8.410;2022-08-19T14:57:14;99828.81;;;30.10;34.96
32789;BME280;19141;48.980;8.410;2022-08-19T14:59:43;99823.03;;;29.97;33.92
32789;BME280;19141;48.980;8.410;2022-08-19T15:02:09;99826.97;;;29.83;34.64
32789;BME280;19141;48.980;8.410;2022-08-19T15:04:35;99831.72;;;29.68;34.45
32789;BME280;19141;48.980;8.410;2022-08-19T15:07:01;99824.34;;;29.41;35.29
32789;BME280;19141;48.980;8.410;2022-08-19T15:09:30;99828.94;;;29.18;35.70
32789;BME280;19141;48.980;8.410;2022-08-19T15:11:56;99829.69;;;28.97;36.55
32789;BME280;19141;48.980;8.410;2022-08-19T15:14:24;99829.66;;;28.83;37.32
32789;BME280;19141;48.980;8.410;2022-08-19T15:16:49;99831.44;;;28.60;37.65
32789;BME280;19141;48.980;8.410;2022-08-19T15:19:15;99837.22;;;28.45;38.32
32789;BME280;19141;48.980;8.410;2022-08-19T15:21:40;99832.22;;;28.33;38.88
32789;BME280;19141;48.980;8.410;2022-08-19T15:24:06;99845.22;;;28.22;39.41
32789;BME280;19141;48.980;8.410;2022-08-19T15:26:31;99835.75;;;28.01;39.90
32789;BME280;19141;48.980;8.410;2022-08-19T15:28:58;99840.28;;;27.92;39.90
32789;BME280;19141;48.980;8.410;2022-08-19T15:31:25;99843.41;;;27.85;40.06
32789;BME280;19141;48.980;8.410;2022-08-19T15:33:53;99848.44;;;27.78;39.51
32789;BME280;19141;48.980;8.410;2022-08-19T15:36:23;99837.03;;;27.71;39.74
32789;BME280;19141;48.980;8.410;2022-08-19T15:38:49;99841.97;;;27.69;40.02
32789;BME280;19141;48.980;8.410;2022-08-19T15:41:24;99836.34;;;27.60;40.22
32789;BME280;19141;48.980;8.410;2022-08-19T15:43:55;99837.59;;;27.49;39.98
32789;BME280;19141;48.980;8.410;2022-08-19T15:46:24;99837.91;;;27.47;40.14
32789;BME280;19141;48.980;8.410;2022-08-19T15:48:51;99838.53;;;27.58;40.61
32789;BME280;19141;48.980;8.410;2022-08-19T15:51:17;99835.53;;;27.59;41.14
32789;BME280;19141;48.980;8.410;2022-08-19T15:53:43;99833.25;;;27.67;41.20
32789;BME280;19141;48.980;8.410;2022-08-19T15:56:09;99832.97;;;27.68;40.48
32789;BME280;19141;48.980;8.410;2022-08-19T15:58:35;99838.44;;;27.68;40.88
32789;BME280;19141;48.980;8.410;2022-08-19T16:01:19;99843.03;;;27.73;39.60
32789;BME280;19141;48.980;8.410;2022-08-19T16:03:58;99837.75;;;27.76;41.12
32789;BME280;19141;48.980;8.410;2022-08-19T16:06:45;99836.38;;;27.79;39.75
32789;BME280;19141;48.980;8.410;2022-08-19T16:09:11;99835.03;;;27.76;38.56
32789;BME280;19141;48.980;8.410;2022-08-19T16:11:37;99838.28;;;27.78;40.03
32789;BME280;19141;48.980;8.410;2022-08-19T16:14:02;99832.44;;;27.85;38.87
32789;BME280;19141;48.980;8.410;2022-08-19T16:16:32;99830.78;;;27.84;38.65
32789;BME280;19141;48.980;8.410;2022-08-19T16:19:00;99825.56;;;27.88;38.25
32789;BME280;19141;48.980;8.410;2022-08-19T16:21:28;99828.91;;;27.84;38.85
32789;BME280;19141;48.980;8.410;2022-08-19T16:23:58;99836.19;;;27.89;39.10
32789;BME280;19141;48.980;8.410;2022-08-19T16:26:24;99831.75;;;27.93;39.66
32789;BME280;19141;48.980;8.410;2022-08-19T16:28:58;99838.34;;;27.92;38.19
32789;BME280;19141;48.980;8.410;2022-08-19T16:31:24;99827.78;;;27.85;37.96
32789;BME280;19141;48.980;8.410;2022-08-19T16:33:50;99831.09;;;27.82;37.77
32789;BME280;19141;48.980;8.410;2022-08-19T16:36:17;99836.88;;;27.81;38.29
32789;BME280;19141;48.980;8.410;2022-08-19T16:38:42;99842.72;;;27.74;37.69
32789;BME280;19141;48.980;8.410;2022-08-19T16:41:11;99844.94;;;27.72;37.97
32789;BME280;19141;48.980;8.410;2022-08-19T16:43:39;99847.16;;;27.70;38.24
32789;BME280;19141;48.980;8.410;2022-08-19T16:46:06;99843.38;;;27.66;37.92
32789;BME280;19141;48.980;8.410;2022-08-19T16:48:33;99841.22;;;27.63;38.68
32789;BME280;19141;48.980;8.410;2022-08-19T16:50:59;99840.19;;;27.59;38.59
32789;BME280;19141;48.980;8.410;2022-08-19T16:53:26;99846.25;;;27.56;38.26
32789;BME280;19141;48.980;8.410;2022-08-19T16:55:56;99839.97;;;27.55;38.30
32789;BME280;19141;48.980;8.410;2022-08-19T16:58:24;99847.13;;;27.51;38.93
32789;BME280;19141;48.980;8.410;2022-08-19T17:00:51;99842.19;;;27.53;38.37
32789;BME280;19141;48.980;8.410;2022-08-19T17:03:18;99848.22;;;27.50;38.57
32789;BME280;19141;48.980;8.410;2022-08-19T17:05:50;99850.97;;;27.50;38.36
32789;BME280;19141;48.980;8.410;2022-08-19T17:08:16;99855.63;;;27.50;38.34
32789;BME280;19141;48.980;8.410;2022-08-19T17:10:43;99857.03;;;27.47;38.50
32789;BME280;19141;48.980;8.410;2022-08-19T17:13:10;99855.69;;;27.45;38.70
32789;BME280;19141;48.980;8.410;2022-08-19T17:15:35;99855.19;;;27.43;39.17
32789;BME280;19141;48.980;8.410;2022-08-19T17:18:03;99852.22;;;27.39;39.16
32789;BME280;19141;48.980;8.410;2022-08-19T17:20:30;99856.78;;;27.44;41.45
32789;BME280;19141;48.980;8.410;2022-08-19T17:22:57;99860.19;;;27.36;39.85
32789;BME280;19141;48.980;8.410;2022-08-19T17:25:23;99857.47;;;27.36;42.37
32789;BME280;19141;48.980;8.410;2022-08-19T17:27:49;99863.22;;;27.34;40.07
32789;BME280;19141;48.980;8.410;2022-08-19T17:30:16;99858.19;;;27.22;40.79
32789;BME280;19141;48.980;8.410;2022-08-19T17:32:42;99873.72;;;27.27;41.83